Time;durP1;ratioP1;P1;durP2;ratioP2;P2;SDS_P1;SDS_P2;PMS_P1;PMS_P2;Temp;Humidity;BMP_temperature;BMP_pressure;BME280_temperature;BME280_humidity;BME280_pressure;Samples;Min_cycle;Max_cycle;Signal;HPM_P1;HPM_P2
2022/07/21 00:02:15;;;;;;;16.83;15.17;;;;;;;19.38;100.00;98427.78;5072823;28;20211;-66
2022/07/21 00:04:41;;;;;;;19.03;16.00;;;;;;;19.44;100.00;98417.28;5072435;28;20218;-66
2022/07/21 00:07:08;;;;;;;17.03;15.33;;;;;;;19.48;100.00;98402.56;5069178;28;20212;-67
2022/07/21 00:09:35;;;;;;;17.10;15.50;;;;;;;19.46;100.00;98398.38;5072483;28;20222;-67
2022/07/21 00:12:02;;;;;;;16.60;15.00;;;;;;;19.45;100.00;98405.56;5072373;28;20245;-67
2022/07/21 00:14:29;;;;;;;17.00;15.30;;;;;;;19.49;100.00;98388.19;5072194;28;20242;-67
2022/07/21 00:16:56;;;;;;;16.83;15.13;;;;;;;19.52;100.00;98385.16;5069268;28;20593;-67
2022/07/21 00:19:23;;;;;;;17.00;15.20;;;;;;;19.47;100.00;98395.53;5046408;28;20211;-67
2022/07/21 00:21:50;;;;;;;17.00;15.20;;;;;;;19.46;100.00;98404.59;5072169;28;20235;-67
2022/07/21 00:24:16;;;;;;;16.47;14.77;;;;;;;19.48;100.00;98402.56;5072163;28;20221;-67
2022/07/21 00:26:43;;;;;;;16.23;14.63;;;;;;;19.46;100.00;98401.91;5067578;28;20215;-66
2022/07/21 00:29:09;;;;;;;17.63;15.40;;;;;;;19.45;100.00;98408.22;5071735;28;20601;-66
2022/07/21 00:31:36;;;;;;;16.70;14.90;;;;;;;19.41;100.00;98412.25;5071801;28;20219;-66
2022/07/21 00:34:03;;;;;;;16.60;14.63;;;;;;;19.37;100.00;98413.53;5071578;28;20207;-66
2022/07/21 00:36:30;;;;;;;15.27;13.67;;;;;;;19.32;100.00;98418.50;5069224;28;20699;-66
2022/07/21 00:38:56;;;;;;;16.43;14.73;;;;;;;19.37;100.00;98416.22;5071070;28;20215;-66
2022/07/21 00:41:23;;;;;;;17.60;15.67;;;;;;;19.41;100.00;98414.94;5071542;28;20293;-66
2022/07/21 00:43:49;;;;;;;18.17;15.97;;;;;;;19.45;100.00;98418.97;5071520;28;20212;-66
2022/07/21 00:46:16;;;;;;;16.93;15.23;;;;;;;19.55;100.00;98426.91;5070134;28;20216;-66
2022/07/21 00:48:43;;;;;;;20.03;16.40;;;;;;;19.59;100.00;98425.63;5068804;28;20242;-66
2022/07/21 00:51:10;;;;;;;19.33;16.13;;;;;;;19.60;100.00;98422.78;5071664;28;20215;-66
2022/07/21 00:53:37;;;;;;;16.10;14.53;;;;;;;19.62;100.00;98426.16;5069781;28;20216;-67
2022/07/21 00:56:04;;;;;;;15.93;14.23;;;;;;;19.61;100.00;98403.03;5070083;28;20239;-66
2022/07/21 00:58:31;;;;;;;17.67;15.13;;;;;;;19.65;100.00;98399.03;5067755;28;20212;-66
2022/07/21 01:00:57;;;;;;;17.57;15.43;;;;;;;19.65;100.00;98388.31;5054247;28;20215;-66
2022/07/21 01:03:24;;;;;;;17.97;16.13;;;;;;;19.59;100.00;98388.94;5054930;28;20212;-67
2022/07/21 01:05:51;;;;;;;16.87;15.07;;;;;;;19.58;100.00;98397.94;5054804;28;20265;-67
2022/07/21 01:08:19;;;;;;;16.47;14.87;;;;;;;19.61;100.00;98412.88;5055368;28;20216;-66
2022/07/21 01:10:46;;;;;;;17.10;15.30;;;;;;;19.67;100.00;98423.84;5054650;28;20216;-66
2022/07/21 01:13:12;;;;;;;16.47;14.87;;;;;;;19.73;100.00;98425.91;5064086;28;20223;-66
2022/07/21 01:15:39;;;;;;;16.27;14.57;;;;;;;19.77;100.00;98416.56;5069815;28;20239;-66
2022/07/21 01:18:06;;;;;;;16.77;15.17;;;;;;;19.80;100.00;98413.56;5067076;28;20208;-67
2022/07/21 01:20:35;;;;;;;16.03;14.43;;;;;;;19.87;100.00;98421.84;5071220;28;20235;-67
2022/07/21 01:23:03;;;;;;;16.53;14.77;;;;;;;19.89;100.00;98417.13;5071325;28;20625;-66
2022/07/21 01:25:30;;;;;;;16.53;14.83;;;;;;;19.89;100.00;98431.41;5069997;28;20218;-67
2022/07/21 01:27:56;;;;;;;15.90;14.23;;;;;;;19.86;100.00;98437.06;5068564;28;20673;-67
2022/07/21 01:30:23;;;;;;;15.77;13.67;;;;;;;19.88;100.00;98443.13;5070790;28;21352;-67
2022/07/21 01:32:49;;;;;;;15.03;13.43;;;;;;;19.91;100.00;98442.81;5070540;28;20226;-67
2022/07/21 01:35:17;;;;;;;15.50;13.33;;;;;;;19.85;100.00;98438.06;5070486;28;20608;-67
2022/07/21 01:37:45;;;;;;;15.30;13.80;;;;;;;19.77;100.00;98440.72;5061397;28;20208;-67
2022/07/21 01:42:58;;;;;;;15.80;14.20;;;;;;;19.61;100.00;98448.59;5070483;28;20223;-67
2022/07/21 01:45:25;;;;;;;15.90;13.77;;;;;;;19.57;100.00;98439.16;5065822;28;20592;-67
2022/07/21 01:47:52;;;;;;;15.57;14.07;;;;;;;19.56;100.00;98436.66;5044239;28;20657;-67
2022/07/21 01:50:20;;;;;;;15.90;14.33;;;;;;;19.56;100.00;98437.50;5070205;28;20211;-67
2022/07/21 01:52:47;;;;;;;15.70;14.10;;;;;;;19.60;100.00;98443.38;5070320;28;20215;-67
2022/07/21 01:55:15;;;;;;;16.43;14.70;;;;;;;19.66;100.00;98453.50;5067614;28;20623;-67
2022/07/21 01:57:42;;;;;;;16.93;15.20;;;;;;;19.70;100.00;98458.38;5044284;28;20214;-66
2022/07/21 02:00:10;;;;;;;16.60;14.00;;;;;;;19.74;100.00;98465.13;5070455;28;20211;-67
2022/07/21 02:02:37;;;;;;;16.07;14.27;;;;;;;19.77;100.00;98478.25;5070134;28;20246;-67
2022/07/21 02:05:03;;;;;;;16.77;14.97;;;;;;;19.82;100.00;98485.84;5067379;28;20211;-66
2022/07/21 02:07:30;;;;;;;16.43;14.83;;;;;;;19.84;100.00;98494.56;5069795;28;20218;-66
2022/07/21 02:09:56;;;;;;;16.40;14.70;;;;;;;19.86;100.00;98498.78;5067842;28;20239;-66
2022/07/21 02:12:24;;;;;;;17.17;15.37;;;;;;;19.88;100.00;98480.66;5070055;28;20661;-66
2022/07/21 02:14:51;;;;;;;17.13;15.40;;;;;;;19.85;100.00;98470.28;5067802;28;20306;-66
2022/07/21 02:17:17;;;;;;;19.00;17.07;;;;;;;19.82;100.00;98465.19;5069289;28;20672;-66
2022/07/21 02:19:44;;;;;;;18.40;16.13;;;;;;;19.79;100.00;98459.31;5069977;28;20221;-65
2022/07/21 02:22:11;;;;;;;17.93;16.03;;;;;;;19.76;100.00;98460.44;5069747;28;20235;-66
2022/07/21 02:24:39;;;;;;;18.23;16.40;;;;;;;19.76;100.00;98471.19;5068326;28;20215;-66
2022/07/21 02:27:06;;;;;;;17.57;15.80;;;;;;;19.72;100.00;98468.97;5069517;28;20226;-66
2022/07/21 02:29:34;;;;;;;16.90;14.97;;;;;;;19.69;100.00;98463.94;5069767;28;20673;-66
2022/07/21 02:32:00;;;;;;;17.67;15.33;;;;;;;19.65;100.00;98468.75;5069866;28;20208;-66
2022/07/21 02:34:27;;;;;;;18.20;16.20;;;;;;;19.66;100.00;98462.41;5067744;28;20214;-66
2022/07/21 02:36:53;;;;;;;16.97;15.27;;;;;;;19.64;100.00;98461.69;5067336;28;20235;-66
2022/07/21 02:39:20;;;;;;;17.23;15.40;;;;;;;19.65;100.00;98463.41;5069929;28;20215;-66
2022/07/21 02:41:47;;;;;;;16.90;15.03;;;;;;;19.70;100.00;98470.97;5069580;28;20329;-66
2022/07/21 02:44:13;;;;;;;16.90;15.10;;;;;;;19.66;100.00;98458.88;5068420;28;20219;-66
2022/07/21 02:46:41;;;;;;;16.47;14.97;;;;;;;19.66;100.00;98466.91;5068377;28;20215;-66
2022/07/21 02:49:07;;;;;;;17.30;15.60;;;;;;;19.64;100.00;98467.06;5069819;28;20643;-66
2022/07/21 02:51:34;;;;;;;16.60;14.80;;;;;;;19.66;100.00;98465.06;5069950;28;20226;-66
2022/07/21 02:54:00;;;;;;;16.17;14.57;;;;;;;19.64;100.00;98467.06;5068836;28;20211;-66
2022/07/21 02:56:27;;;;;;;15.83;14.20;;;;;;;19.65;100.00;98467.91;5067553;28;20236;-66
2022/07/21 02:58:53;;;;;;;17.37;15.47;;;;;;;19.62;100.00;98466.38;5069864;28;20215;-66
2022/07/21 03:01:20;;;;;;;16.47;14.87;;;;;;;19.61;100.00;98472.75;5069492;28;20222;-66
2022/07/21 03:03:48;;;;;;;18.13;14.53;;;;;;;19.60;100.00;98471.06;5067482;28;20219;-66
2022/07/21 03:06:14;;;;;;;17.80;16.00;;;;;;;19.59;100.00;98476.56;5067431;28;20218;-65
2022/07/21 03:08:41;;;;;;;17.27;15.27;;;;;;;19.57;100.00;98471.34;5069297;28;20216;-66
2022/07/21 03:11:08;;;;;;;17.00;15.20;;;;;;;19.62;100.00;98477.09;5069558;28;20213;-67
2022/07/21 03:13:34;;;;;;;16.43;14.83;;;;;;;19.66;100.00;98470.44;5069097;28;20211;-66
2022/07/21 03:16:01;;;;;;;17.33;15.03;;;;;;;19.71;100.00;98476.19;5066706;28;20257;-66
2022/07/21 03:18:27;;;;;;;16.50;14.90;;;;;;;19.74;100.00;98486.59;5069536;28;20222;-66
2022/07/21 03:20:55;;;;;;;18.17;15.63;;;;;;;19.77;100.00;98483.63;5069534;28;20281;-66
2022/07/21 03:23:23;;;;;;;17.83;15.83;;;;;;;19.83;100.00;98493.72;5071548;28;20303;-66
2022/07/21 03:25:49;;;;;;;16.90;15.13;;;;;;;19.82;100.00;98494.69;5067367;28;20208;-66
2022/07/21 03:28:16;;;;;;;16.67;15.00;;;;;;;19.84;100.00;98497.25;5071190;28;20215;-66
2022/07/21 03:30:43;;;;;;;17.63;15.83;;;;;;;19.80;100.00;98504.75;5073594;28;20258;-66
2022/07/21 03:33:09;;;;;;;17.30;15.30;;;;;;;19.84;100.00;98510.66;5073192;28;20222;-66
2022/07/21 03:35:36;;;;;;;19.13;16.00;;;;;;;19.83;100.00;98508.97;5069922;28;20243;-66
2022/07/21 03:38:05;;;;;;;17.70;15.03;;;;;;;19.82;100.00;98518.84;5066504;28;20222;-66
2022/07/21 03:40:34;;;;;;;17.80;15.97;;;;;;;19.81;100.00;98517.16;5073012;28;20218;-66
2022/07/21 03:43:03;;;;;;;19.20;16.83;;;;;;;19.84;100.00;98519.56;5073024;28;20318;-66
2022/07/21 03:45:31;;;;;;;16.57;14.87;;;;;;;19.85;100.00;98528.44;5067289;28;20216;-67
2022/07/21 03:47:58;;;;;;;16.53;14.83;;;;;;;19.94;100.00;98532.88;5072867;28;20306;-66
2022/07/21 03:50:25;;;;;;;16.63;15.03;;;;;;;19.95;100.00;98534.56;5072699;28;20222;-69
2022/07/21 03:52:52;;;;;;;16.77;14.90;;;;;;;19.99;100.00;98534.09;5072323;28;20653;-66
2022/07/21 03:55:20;;;;;;;15.43;13.93;;;;;;;20.01;100.00;98529.44;5067447;28;20242;-67
2022/07/21 03:57:49;;;;;;;16.30;14.63;;;;;;;20.02;100.00;98531.13;5072599;28;20231;-67
2022/07/21 04:00:18;;;;;;;15.67;14.07;;;;;;;20.03;100.00;98527.44;5072550;28;20230;-67
2022/07/21 04:02:45;;;;;;;15.60;13.83;;;;;;;20.08;100.00;98530.53;5072001;28;20222;-67
2022/07/21 04:05:12;;;;;;;16.03;13.87;;;;;;;20.11;100.00;98529.38;5069635;28;20255;-67
2022/07/21 04:07:41;;;;;;;14.10;12.67;;;;;;;20.12;100.00;98534.56;5071977;28;20664;-67
2022/07/21 04:10:08;;;;;;;14.00;12.70;;;;;;;20.16;100.00;98538.63;5072302;28;20265;-67
2022/07/21 04:12:37;;;;;;;15.83;14.13;;;;;;;20.19;100.00;98548.22;5071943;28;20261;-66
2022/07/21 04:15:04;;;;;;;14.60;13.20;;;;;;;20.19;100.00;98551.72;5069944;28;20239;-67
2022/07/21 04:17:30;;;;;;;14.60;13.07;;;;;;;20.22;100.00;98546.06;5072175;28;20627;-67
2022/07/21 04:19:57;;;;;;;13.87;12.43;;;;;;;20.21;100.00;98536.34;5070200;28;20219;-67
2022/07/21 04:22:23;;;;;;;13.97;12.43;;;;;;;20.20;100.00;98539.16;5072279;28;20250;-67
2022/07/21 04:24:50;;;;;;;15.00;13.50;;;;;;;20.18;100.00;98542.00;5066354;28;20576;-67
2022/07/21 04:27:17;;;;;;;13.67;12.37;;;;;;;20.16;100.00;98544.00;5072172;28;20219;-67
2022/07/21 04:29:44;;;;;;;15.00;13.33;;;;;;;20.14;100.00;98551.38;5071854;28;20225;-67
2022/07/21 04:32:11;;;;;;;14.23;12.93;;;;;;;20.17;100.00;98556.41;5071714;28;20231;-67
2022/07/21 04:34:37;;;;;;;14.33;12.83;;;;;;;20.21;100.00;98562.31;5055955;28;20242;-67
2022/07/21 04:37:04;;;;;;;14.03;12.60;;;;;;;20.19;100.00;98553.59;5071238;28;20231;-67
2022/07/21 04:39:31;;;;;;;15.00;13.57;;;;;;;20.13;100.00;98548.84;5071775;28;20234;-67
2022/07/21 04:41:57;;;;;;;15.67;14.10;;;;;;;20.06;100.00;98553.97;5071674;28;20223;-67
2022/07/21 04:44:24;;;;;;;15.63;13.53;;;;;;;19.99;100.00;98560.94;5068350;28;20218;-67
2022/07/21 04:46:51;;;;;;;15.03;13.53;;;;;;;19.92;100.00;98572.41;5044031;28;20212;-67
2022/07/21 04:49:18;;;;;;;17.50;14.17;;;;;;;19.89;100.00;98587.00;5071472;28;20219;-67
2022/07/21 04:51:45;;;;;;;14.33;12.80;;;;;;;19.83;100.00;98576.03;5071461;28;20581;-67
2022/07/21 04:54:13;;;;;;;15.00;13.43;;;;;;;19.78;100.00;98576.50;5068318;28;20606;-67
2022/07/21 04:56:40;;;;;;;14.87;13.37;;;;;;;19.71;100.00;98570.06;5044911;28;20578;-67
2022/07/21 04:59:07;;;;;;;14.07;12.70;;;;;;;19.70;100.00;98573.72;5071483;28;20241;-67
2022/07/21 05:01:34;;;;;;;15.60;13.90;;;;;;;19.74;100.00;98575.13;5071447;28;20304;-67
2022/07/21 05:04:01;;;;;;;14.47;12.97;;;;;;;19.80;100.00;98562.94;5068774;28;20208;-67
2022/07/21 05:06:28;;;;;;;13.60;12.20;;;;;;;19.98;100.00;98561.94;5071324;28;20212;-67
2022/07/21 05:08:54;;;;;;;14.63;12.90;;;;;;;20.16;100.00;98557.44;5071098;28;20211;-67
2022/07/21 05:11:21;;;;;;;13.10;11.83;;;;;;;20.26;100.00;98565.38;5071218;28;20576;-67
2022/07/21 05:13:48;;;;;;;14.33;12.93;;;;;;;20.39;100.00;98569.38;5067069;28;20665;-67
2022/07/21 05:16:14;;;;;;;14.87;12.80;;;;;;;20.47;100.00;98573.97;5070491;28;20239;-67
2022/07/21 05:18:41;;;;;;;13.67;12.27;;;;;;;20.62;100.00;98572.38;5071155;28;20238;-67
2022/07/21 05:21:09;;;;;;;13.53;12.13;;;;;;;20.94;100.00;98573.44;5070866;28;20235;-67
2022/07/21 05:23:35;;;;;;;12.03;10.90;;;;;;;21.53;100.00;98577.91;5068884;28;20212;-67
2022/07/21 05:26:02;;;;;;;11.77;10.67;;;;;;;22.18;100.00;98577.88;5070000;28;20215;-67
2022/07/21 05:28:28;;;;;;;12.30;11.10;;;;;;;22.80;100.00;98579.88;5070843;28;20217;-67
2022/07/21 05:30:55;;;;;;;11.10;10.00;;;;;;;23.24;100.00;98583.00;5070655;28;20211;-67
2022/07/21 05:33:21;;;;;;;12.83;11.53;;;;;;;23.44;100.00;98582.41;5069581;28;20218;-67
2022/07/21 05:35:48;;;;;;;12.27;11.10;;;;;;;23.79;100.00;98595.38;5069358;28;20219;-67
2022/07/21 05:38:16;;;;;;;11.97;10.77;;;;;;;23.88;97.30;98586.22;5062368;28;20210;-68
2022/07/21 05:40:43;;;;;;;13.20;10.67;;;;;;;24.47;94.21;98593.56;5070379;28;20688;-67
2022/07/21 05:43:09;;;;;;;11.77;10.57;;;;;;;24.76;91.68;98601.75;5069370;28;20673;-67
2022/07/21 05:45:36;;;;;;;11.20;10.10;;;;;;;24.60;92.32;98601.06;5068007;28;20208;-67
2022/07/21 05:48:02;;;;;;;11.67;10.47;;;;;;;24.95;92.11;98595.84;5067737;28;20220;-67
2022/07/21 05:50:29;;;;;;;11.50;10.33;;;;;;;25.57;85.72;98590.91;5063192;28;20214;-67
2022/07/21 05:52:55;;;;;;;11.07;9.97;;;;;;;26.08;82.19;98598.84;5069939;28;20677;-67
2022/07/21 05:55:23;;;;;;;10.87;9.83;;;;;;;26.49;79.63;98594.47;5067797;28;20670;-68
2022/07/21 05:57:50;;;;;;;11.10;10.00;;;;;;;26.46;79.97;98613.84;5070201;28;20239;-67
2022/07/21 06:00:17;;;;;;;11.10;10.00;;;;;;;26.24;80.71;98623.00;5070327;28;20213;-67
2022/07/21 06:02:44;;;;;;;11.03;10.00;;;;;;;25.79;82.39;98628.69;5070191;28;20213;-67
2022/07/21 06:05:11;;;;;;;10.63;9.63;;;;;;;25.32;82.83;98628.28;5065790;28;20216;-67
2022/07/21 06:07:38;;;;;;;11.13;10.03;;;;;;;25.48;84.61;98630.78;5070279;28;20211;-68
2022/07/21 06:10:06;;;;;;;10.50;9.60;;;;;;;26.26;82.36;98637.19;5070405;28;20294;-68
2022/07/21 06:12:34;;;;;;;11.47;10.37;;;;;;;26.50;79.67;98639.53;5070196;28;20219;-67
2022/07/21 06:15:01;;;;;;;10.10;9.17;;;;;;;26.92;77.24;98639.53;5064902;28;20235;-67
2022/07/21 06:17:31;;;;;;;10.60;9.50;;;;;;;27.27;74.14;98627.72;5069823;28;20253;-67
2022/07/21 06:19:57;;;;;;;10.63;9.53;;;;;;;27.68;71.62;98625.84;5069771;28;20262;-68
2022/07/21 06:22:24;;;;;;;10.10;9.20;;;;;;;27.91;66.03;98638.13;5069999;28;20289;-67
2022/07/21 06:24:50;;;;;;;11.37;10.17;;;;;;;27.96;69.18;98645.66;5067396;28;20580;-67
2022/07/21 06:27:17;;;;;;;11.33;9.87;;;;;;;27.26;67.80;98644.19;5069796;28;20242;-68
2022/07/21 06:29:45;;;;;;;10.10;9.20;;;;;;;27.59;69.80;98646.06;5068971;28;20591;-67
2022/07/21 06:32:11;;;;;;;10.10;9.20;;;;;;;28.29;67.84;98646.59;5069046;28;20215;-67
2022/07/21 06:34:38;;;;;;;11.63;10.50;;;;;;;28.35;66.78;98645.78;5064172;28;20216;-67
2022/07/21 06:37:04;;;;;;;10.27;9.27;;;;;;;27.40;70.89;98649.53;5069667;28;20231;-68
2022/07/21 06:39:31;;;;;;;9.70;8.80;;;;;;;27.34;71.92;98642.16;5069944;28;20219;-67
2022/07/21 06:41:58;;;;;;;10.97;9.97;;;;;;;27.65;72.35;98648.00;5070051;28;20250;-68
2022/07/21 06:44:25;;;;;;;9.80;8.90;;;;;;;27.88;70.72;98643.13;5067450;28;20234;-68
2022/07/21 06:46:53;;;;;;;10.27;9.27;;;;;;;27.59;68.08;98637.94;5069669;28;20281;-68
2022/07/21 06:49:20;;;;;;;9.07;8.27;;;;;;;26.96;71.81;98638.13;5070023;28;20211;-68
2022/07/21 06:51:46;;;;;;;10.83;8.90;;;;;;;27.61;68.99;98644.00;5070013;28;20215;-67
2022/07/21 06:54:13;;;;;;;9.57;8.60;;;;;;;28.27;66.00;98632.38;5065554;28;20294;-67
2022/07/21 06:56:39;;;;;;;8.93;8.03;;;;;;;28.54;62.91;98639.56;5066864;28;20235;-68
2022/07/21 06:59:06;;;;;;;8.97;7.77;;;;;;;28.60;63.18;98638.75;5073065;28;20219;-70
2022/07/21 07:01:33;;;;;;;9.57;8.70;;;;;;;28.60;62.56;98644.19;5072751;28;20219;-68
2022/07/21 07:04:01;;;;;;;9.73;8.73;;;;;;;28.40;64.38;98644.16;5059513;28;20820;-69
2022/07/21 07:06:28;;;;;;;8.50;7.80;;;;;;;27.94;66.39;98642.31;5054172;28;20223;-67
2022/07/21 07:08:54;;;;;;;9.00;8.10;;;;;;;26.99;70.13;98643.13;5054276;28;20700;-69
2022/07/21 07:11:21;;;;;;;9.00;8.20;;;;;;;26.13;73.20;98647.91;5057285;28;20208;-70
2022/07/21 07:13:47;;;;;;;9.43;8.63;;;;;;;25.54;77.89;98650.88;5057935;28;20223;-71
2022/07/21 07:16:14;;;;;;;9.20;8.40;;;;;;;25.19;77.53;98647.00;5057844;28;20290;-71
2022/07/21 07:18:41;;;;;;;9.23;8.33;;;;;;;25.05;79.00;98658.63;5057322;28;20222;-71
2022/07/21 07:21:08;;;;;;;8.70;7.80;;;;;;;25.02;79.82;98655.44;5058470;28;20247;-73
2022/07/21 07:23:35;;;;;;;10.17;8.63;;;;;;;24.92;80.21;98650.28;5057674;28;20208;-75
2022/07/21 07:26:01;;;;;;;8.93;8.23;;;;;;;24.83;79.35;98648.72;5056514;28;20220;-73
2022/07/21 07:28:28;;;;;;;9.23;8.33;;;;;;;24.69;78.13;98648.66;5057619;28;20325;-71
2022/07/21 07:30:55;;;;;;;9.83;8.87;;;;;;;24.53;79.02;98648.75;5058032;28;20216;-71
2022/07/21 07:33:24;;;;;;;8.77;8.00;;;;;;;24.55;78.46;98652.97;5058774;28;20703;-71
2022/07/21 07:35:51;;;;;;;8.80;7.80;;;;;;;24.55;76.43;98646.69;5057005;28;20219;-73
2022/07/21 07:38:19;;;;;;;7.97;7.27;;;;;;;24.72;75.85;98649.13;5057121;28;20739;-71
2022/07/21 07:40:45;;;;;;;8.00;7.20;;;;;;;24.83;73.91;98650.56;5057006;28;20212;-73
2022/07/21 07:43:12;;;;;;;8.27;7.47;;;;;;;24.73;74.93;98650.81;5059570;28;20220;-70
2022/07/21 07:45:39;;;;;;;7.73;7.03;;;;;;;24.83;74.89;98651.41;5057365;28;20234;-73
2022/07/21 07:48:06;;;;;;;8.90;7.67;;;;;;;24.86;72.24;98651.03;5056427;28;20217;-74
2022/07/21 07:50:32;;;;;;;8.30;7.60;;;;;;;24.82;74.96;98649.69;5056576;28;20298;-71
2022/07/21 07:52:59;;;;;;;8.00;7.30;;;;;;;25.12;76.57;98651.44;5054966;28;20211;-72
2022/07/21 07:55:27;;;;;;;8.13;7.43;;;;;;;25.32;73.05;98641.81;5056280;28;20212;-71
2022/07/21 07:57:53;;;;;;;8.03;7.23;;;;;;;25.39;69.95;98650.84;5057156;28;20239;-73
2022/07/21 08:00:21;;;;;;;8.03;7.33;;;;;;;25.35;71.15;98646.84;5057322;28;20212;-74
2022/07/21 08:02:47;;;;;;;7.57;6.63;;;;;;;25.34;72.67;98658.69;5058770;28;20223;-74
2022/07/21 08:05:14;;;;;;;8.23;7.43;;;;;;;25.23;73.38;98655.59;5053395;28;20220;-73
2022/07/21 08:07:41;;;;;;;7.80;7.00;;;;;;;25.19;75.90;98662.38;5053066;28;20646;-74
2022/07/21 08:10:09;;;;;;;8.00;7.30;;;;;;;25.19;77.29;98656.97;5053525;28;20304;-70
2022/07/21 08:12:38;;;;;;;8.03;7.33;;;;;;;25.05;71.87;98661.31;5054376;28;20212;-72
2022/07/21 08:15:05;;;;;;;7.57;6.97;;;;;;;24.95;73.52;98660.75;5052202;28;20208;-74
2022/07/21 08:17:32;;;;;;;8.80;7.03;;;;;;;24.85;73.80;98654.75;5053395;28;20721;-75
2022/07/21 08:19:58;;;;;;;6.83;6.23;;;;;;;24.79;73.51;98654.63;5054504;28;20220;-76
2022/07/21 08:22:25;;;;;;;7.10;6.50;;;;;;;24.71;75.37;98652.88;5054154;28;20208;-73
2022/07/21 08:24:52;;;;;;;7.73;6.97;;;;;;;24.57;74.76;98656.34;5053048;28;20764;-73
2022/07/21 08:27:18;;;;;;;7.30;6.50;;;;;;;24.50;75.09;98652.66;5054394;28;20215;-74
2022/07/21 08:29:47;;;;;;;7.00;6.40;;;;;;;24.51;75.90;98653.50;5053724;28;20222;-73
2022/07/21 08:32:13;;;;;;;7.40;6.70;;;;;;;24.65;75.30;98653.59;5053529;28;20622;-73
2022/07/21 08:34:40;;;;;;;7.67;6.97;;;;;;;24.91;75.88;98658.59;5053427;28;20216;-75
2022/07/21 08:37:06;;;;;;;7.57;6.77;;;;;;;25.00;73.40;98658.31;5053677;28;20719;-77
2022/07/21 08:39:33;;;;;;;7.30;6.67;;;;;;;25.08;72.98;98660.97;5053219;28;20220;-78
2022/07/21 08:42:01;;;;;;;7.40;6.70;;;;;;;25.27;71.65;98659.63;5052408;28;20212;-73
2022/07/21 08:44:27;;;;;;;6.83;6.13;;;;;;;25.54;70.40;98656.28;5042761;28;20588;-78
2022/07/21 08:46:55;;;;;;;7.07;6.17;;;;;;;25.91;66.46;98648.88;5053163;28;20208;-75
2022/07/21 08:49:22;;;;;;;6.47;5.90;;;;;;;26.37;67.85;98646.69;5054055;28;20220;-73
2022/07/21 08:51:51;;;;;;;6.45;5.65;;;;;;;26.90;65.69;98647.03;5053445;28;20254;-73
2022/07/21 08:54:18;;;;;;;6.27;5.43;;;;;;;27.11;60.78;98644.28;5052710;28;20216;-74
2022/07/21 08:56:44;;;;;;;5.73;5.23;;;;;;;26.80;58.25;98635.66;5053702;28;20212;-74
2022/07/21 08:59:11;;;;;;;5.70;5.20;;;;;;;26.64;63.03;98645.97;5053345;28;20216;-74
2022/07/21 09:01:37;;;;;;;6.07;5.47;;;;;;;26.46;61.39;98640.94;5052842;28;20200;-76
2022/07/21 09:04:26;;;;;;;6.27;5.67;;;;;;;26.24;63.20;98639.28;5053459;28;20224;-73
2022/07/21 09:06:58;;;;;;;6.03;5.50;;;;;;;26.21;62.63;98638.81;5051848;28;20211;-74
2022/07/21 09:09:26;;;;;;;6.10;5.60;;;;;;;26.19;62.25;98636.28;5050879;28;20215;-76
2022/07/21 09:11:53;;;;;;;6.20;5.60;;;;;;;26.26;63.91;98637.19;5058787;28;20298;-74
2022/07/21 09:14:22;;;;;;;6.97;5.77;;;;;;;26.32;63.29;98641.84;5058052;28;20306;-74
2022/07/21 09:16:50;;;;;;;6.90;6.20;;;;;;;26.14;59.26;98637.91;5056963;28;20212;-74
2022/07/21 09:19:20;;;;;;;7.10;5.23;;;;;;;26.15;60.14;98640.41;5053247;28;20208;-73
2022/07/21 09:21:48;;;;;;;6.00;5.40;;;;;;;26.28;63.51;98637.84;5057971;28;20247;-74
2022/07/21 09:24:18;;;;;;;6.10;5.50;;;;;;;26.37;63.66;98636.69;5057315;28;20342;-73
2022/07/21 09:27:01;;;;;;;6.40;5.80;;;;;;;26.40;61.21;98636.28;5058641;28;20211;-76
2022/07/21 09:29:35;;;;;;;5.97;5.40;;;;;;;26.53;61.21;98639.16;5059373;28;20219;-77
2022/07/21 09:32:16;;;;;;;6.67;5.87;;;;;;;26.62;60.28;98627.16;5057301;28;20220;-76
2022/07/21 09:34:43;;;;;;;6.20;5.70;;;;;;;26.72;59.07;98629.53;5057478;28;20219;-74
2022/07/21 09:37:11;;;;;;;6.05;5.47;;;;;;;26.80;58.63;98630.25;5060595;28;20203;-75
2022/07/21 09:39:42;;;;;;;6.13;5.63;;;;;;;26.89;58.63;98625.53;5056963;28;20230;-76
2022/07/21 09:42:13;;;;;;;6.00;5.50;;;;;;;27.01;60.85;98632.91;5057550;28;20238;-76
2022/07/21 09:44:43;;;;;;;6.13;5.60;;;;;;;27.04;56.83;98627.94;5059916;28;20231;-73
2022/07/21 09:47:13;;;;;;;7.28;5.32;;;;;;;27.09;56.88;98624.63;5058088;28;20211;-76
2022/07/21 09:49:40;;;;;;;6.53;5.93;;;;;;;27.40;57.01;98628.63;5057619;28;20227;-74
2022/07/21 09:52:29;;;;;;;6.15;5.65;;;;;;;27.81;59.18;98631.41;5057564;28;20216;-72
2022/07/21 09:54:56;;;;;;;6.18;5.47;;;;;;;28.31;58.07;98628.22;5053815;28;20219;-74
2022/07/21 09:57:23;;;;;;;5.05;4.55;;;;;;;28.68;54.95;98635.84;5057219;28;20234;-72
2022/07/21 09:59:51;;;;;;;5.55;5.05;;;;;;;28.95;50.34;98632.09;5055585;28;20580;-70
2022/07/21 10:02:20;;;;;;;5.85;5.05;;;;;;;28.90;48.57;98634.56;5058765;28;20227;-70
2022/07/21 10:04:50;;;;;;;6.65;5.60;;;;;;;28.66;50.45;98635.19;5059317;28;20579;-69
2022/07/21 10:07:17;;;;;;;6.45;5.60;;;;;;;28.15;50.21;98634.88;5054446;28;20600;-71
2022/07/21 10:09:45;;;;;;;5.75;5.25;;;;;;;27.28;53.26;98640.25;5050830;28;20235;-72
2022/07/21 10:12:12;;;;;;;6.37;5.50;;;;;;;26.77;55.93;98630.63;5052183;28;20212;-69
2022/07/21 10:14:39;;;;;;;6.40;5.70;;;;;;;26.35;58.43;98632.50;5052127;28;20219;-72
2022/07/21 10:17:06;;;;;;;5.90;5.40;;;;;;;26.08;59.29;98634.06;5051444;28;20216;-70
2022/07/21 10:19:37;;;;;;;7.67;5.73;;;;;;;25.86;60.20;98629.63;5052077;28;20216;-71
2022/07/21 10:22:13;;;;;;;5.80;5.30;;;;;;;25.83;61.55;98621.88;5052030;28;20240;-69
2022/07/21 10:24:40;;;;;;;6.27;5.67;;;;;;;25.72;60.57;98627.75;5050448;28;20211;-70
2022/07/21 10:27:10;;;;;;;6.43;5.83;;;;;;;25.58;59.83;98625.06;5050586;28;20212;-72
2022/07/21 10:30:00;;;;;;;6.33;5.73;;;;;;;25.77;60.14;98617.22;5052133;28;20215;-69
2022/07/21 10:32:29;;;;;;;5.67;5.13;;;;;;;25.80;60.94;98614.13;5050287;28;20212;-69
2022/07/21 10:34:58;;;;;;;5.77;5.27;;;;;;;25.78;61.16;98616.19;5051681;28;20213;-69
2022/07/21 10:37:44;;;;;;;6.57;5.97;;;;;;;25.82;60.53;98597.69;5052465;28;20709;-72
2022/07/21 10:40:35;;;;;;;6.33;5.33;;;;;;;25.91;62.22;98604.72;5051862;28;20665;-71
2022/07/21 10:43:38;;;;;;;5.47;5.03;;;;;;;25.83;60.41;98600.19;5052501;28;20216;-71
2022/07/21 10:46:35;;;;;;;5.47;5.00;;;;;;;26.01;63.83;98606.06;5052151;28;20265;-71
2022/07/21 10:49:05;;;;;;;5.53;5.00;;;;;;;26.21;59.72;98601.69;5053081;28;20620;-72
2022/07/21 10:51:33;;;;;;;5.40;4.90;;;;;;;26.39;57.47;98599.38;5052726;28;20215;-71
2022/07/21 10:54:21;;;;;;;5.47;4.97;;;;;;;26.41;56.88;98608.19;5050679;28;20687;-71
2022/07/21 10:56:47;;;;;;;4.90;4.50;;;;;;;26.56;55.89;98595.41;5052803;28;20212;-71
2022/07/21 10:59:15;;;;;;;4.57;4.17;;;;;;;26.72;54.47;98597.84;5052551;28;20235;-72
2022/07/21 11:01:42;;;;;;;4.72;4.30;;;;;;;26.95;51.84;98592.19;5052298;28;20211;-72
2022/07/21 11:04:10;;;;;;;4.18;3.85;;;;;;;27.20;49.97;98588.81;5052727;28;20234;-71
2022/07/21 11:06:37;;;;;;;4.38;3.97;;;;;;;27.44;49.04;98591.03;5052537;28;20218;-72
2022/07/21 11:09:10;;;;;;;4.22;3.83;;;;;;;27.56;51.51;98589.44;5052569;28;20212;-72
2022/07/21 11:11:38;;;;;;;4.55;4.15;;;;;;;27.84;49.31;98584.78;5052366;28;20708;-72
2022/07/21 11:14:08;;;;;;;4.45;4.15;;;;;;;27.86;50.37;98582.69;5052613;28;20209;-72
2022/07/21 11:17:10;;;;;;;4.97;4.50;;;;;;;27.93;50.26;98569.97;5052431;28;20273;-72
2022/07/21 11:19:42;;;;;;;5.20;4.70;;;;;;;27.94;50.22;98572.47;5049315;28;20231;-72
2022/07/21 11:22:15;;;;;;;5.00;4.50;;;;;;;28.00;49.74;98587.16;5051327;28;20242;-71
2022/07/21 11:24:43;;;;;;;5.10;4.57;;;;;;;27.91;48.40;98572.06;5052632;28;20215;-73
2022/07/21 11:27:12;;;;;;;4.60;4.20;;;;;;;27.64;48.63;98581.13;5049888;28;20686;-72